sensor_id;sensor_type;location;lat;lon;timestamp;P1;durP1;ratioP1;P2;durP2;ratioP2
81685;SDS011;71102;50.960;6.888;2023-11-19T00:00:46;2.70;;;0.90;;
81685;SDS011;71102;50.960;6.888;2023-11-19T00:03:11;1.20;;;0.50;;
81685;SDS011;71102;50.960;6.888;2023-11-19T00:05:37;3.30;;;1.70;;
81685;SDS011;71102;50.960;6.888;2023-11-19T00:08:02;4.80;;;1.63;;
81685;SDS011;71102;50.960;6.888;2023-11-19T00:10:27;2.33;;;0.50;;
81685;SDS011;71102;50.960;6.888;2023-11-19T00:12:52;1.63;;;0.50;;
81685;SDS011;71102;50.960;6.888;2023-11-19T00:15:18;2.70;;;1.00;;
81685;SDS011;71102;50.960;6.888;2023-11-19T00:17:46;3.08;;;0.80;;
81685;SDS011;71102;50.960;6.888;2023-11-19T00:20:12;2.80;;;1.02;;
81685;SDS011;71102;50.960;6.888;2023-11-19T00:22:37;2.75;;;0.73;;
81685;SDS011;71102;50.960;6.888;2023-11-19T00:25:03;4.03;;;0.60;;
81685;SDS011;71102;50.960;6.888;2023-11-19T00:27:28;3.15;;;1.70;;
81685;SDS011;71102;50.960;6.888;2023-11-19T00:29:53;1.43;;;0.50;;
81685;SDS011;71102;50.960;6.888;2023-11-19T00:32:18;1.97;;;0.80;;
81685;SDS011;71102;50.960;6.888;2023-11-19T00:34:44;2.23;;;0.50;;
81685;SDS011;71102;50.960;6.888;2023-11-19T00:37:09;2.45;;;0.95;;
81685;SDS011;71102;50.960;6.888;2023-11-19T00:39:34;3.33;;;1.47;;
81685;SDS011;71102;50.960;6.888;2023-11-19T00:42:00;2.07;;;0.57;;
81685;SDS011;71102;50.960;6.888;2023-11-19T00:44:25;1.07;;;0.40;;
81685;SDS011;71102;50.960;6.888;2023-11-19T00:46:51;2.13;;;0.60;;
81685;SDS011;71102;50.960;6.888;2023-11-19T00:49:16;2.90;;;1.33;;
81685;SDS011;71102;50.960;6.888;2023-11-19T00:51:42;1.90;;;0.60;;
81685;SDS011;71102;50.960;6.888;2023-11-19T00:54:07;2.07;;;0.60;;
81685;SDS011;71102;50.960;6.888;2023-11-19T00:56:32;1.80;;;0.70;;
81685;SDS011;71102;50.960;6.888;2023-11-19T00:58:57;2.27;;;0.80;;
81685;SDS011;71102;50.960;6.888;2023-11-19T01:01:23;2.97;;;0.73;;
81685;SDS011;71102;50.960;6.888;2023-11-19T01:03:48;1.70;;;0.50;;
81685;SDS011;71102;50.960;6.888;2023-11-19T01:06:13;1.40;;;0.40;;
81685;SDS011;71102;50.960;6.888;2023-11-19T01:08:38;2.57;;;0.77;;
81685;SDS011;71102;50.960;6.888;2023-11-19T01:11:04;2.17;;;0.50;;
81685;SDS011;71102;50.960;6.888;2023-11-19T01:13:29;3.03;;;0.77;;
81685;SDS011;71102;50.960;6.888;2023-11-19T01:15:54;4.43;;;0.80;;
81685;SDS011;71102;50.960;6.888;2023-11-19T01:18:19;2.57;;;0.77;;
81685;SDS011;71102;50.960;6.888;2023-11-19T01:20:45;2.90;;;0.57;;
81685;SDS011;71102;50.960;6.888;2023-11-19T01:23:12;1.35;;;0.57;;
81685;SDS011;71102;50.960;6.888;2023-11-19T01:25:37;2.17;;;0.47;;
81685;SDS011;71102;50.960;6.888;2023-11-19T01:28:02;1.43;;;0.30;;
81685;SDS011;71102;50.960;6.888;2023-11-19T01:30:27;3.45;;;0.70;;
81685;SDS011;71102;50.960;6.888;2023-11-19T01:32:53;5.73;;;0.80;;
81685;SDS011;71102;50.960;6.888;2023-11-19T01:35:18;3.07;;;0.97;;
81685;SDS011;71102;50.960;6.888;2023-11-19T01:37:43;3.37;;;1.20;;
81685;SDS011;71102;50.960;6.888;2023-11-19T01:40:08;1.63;;;0.43;;
81685;SDS011;71102;50.960;6.888;2023-11-19T01:42:37;1.08;;;0.38;;
81685;SDS011;71102;50.960;6.888;2023-11-19T01:45:02;1.83;;;0.50;;
81685;SDS011;71102;50.960;6.888;2023-11-19T01:47:28;2.45;;;0.77;;
81685;SDS011;71102;50.960;6.888;2023-11-19T01:49:54;2.17;;;0.65;;
81685;SDS011;71102;50.960;6.888;2023-11-19T01:52:20;3.92;;;1.67;;
81685;SDS011;71102;50.960;6.888;2023-11-19T01:54:45;5.27;;;0.80;;
81685;SDS011;71102;50.960;6.888;2023-11-19T01:57:11;2.20;;;0.75;;
81685;SDS011;71102;50.960;6.888;2023-11-19T01:59:37;3.00;;;0.85;;
81685;SDS011;71102;50.960;6.888;2023-11-19T02:02:03;3.40;;;1.03;;
81685;SDS011;71102;50.960;6.888;2023-11-19T02:04:28;2.37;;;0.70;;
81685;SDS011;71102;50.960;6.888;2023-11-19T02:06:54;1.73;;;0.63;;
81685;SDS011;71102;50.960;6.888;2023-11-19T02:09:21;4.47;;;1.38;;
81685;SDS011;71102;50.960;6.888;2023-11-19T02:11:46;2.37;;;0.70;;
81685;SDS011;71102;50.960;6.888;2023-11-19T02:14:12;4.90;;;1.17;;
81685;SDS011;71102;50.960;6.888;2023-11-19T02:16:37;4.13;;;1.33;;
81685;SDS011;71102;50.960;6.888;2023-11-19T02:19:02;8.73;;;1.30;;
81685;SDS011;71102;50.960;6.888;2023-11-19T02:21:27;5.70;;;1.13;;
81685;SDS011;71102;50.960;6.888;2023-11-19T02:23:52;5.03;;;1.00;;
81685;SDS011;71102;50.960;6.888;2023-11-19T02:26:22;8.98;;;1.52;;
81685;SDS011;71102;50.960;6.888;2023-11-19T02:28:50;7.45;;;1.20;;
81685;SDS011;71102;50.960;6.888;2023-11-19T02:31:15;3.93;;;0.93;;
81685;SDS011;71102;50.960;6.888;2023-11-19T02:33:41;6.30;;;1.40;;
81685;SDS011;71102;50.960;6.888;2023-11-19T02:36:06;5.20;;;1.97;;
81685;SDS011;71102;50.960;6.888;2023-11-19T02:38:32;5.82;;;1.00;;
81685;SDS011;71102;50.960;6.888;2023-11-19T02:40:57;5.00;;;1.30;;
81685;SDS011;71102;50.960;6.888;2023-11-19T02:43:22;6.73;;;2.27;;
81685;SDS011;71102;50.960;6.888;2023-11-19T02:45:48;4.88;;;1.38;;
81685;SDS011;71102;50.960;6.888;2023-11-19T02:48:13;5.67;;;1.27;;
81685;SDS011;71102;50.960;6.888;2023-11-19T02:50:38;8.37;;;1.27;;
81685;SDS011;71102;50.960;6.888;2023-11-19T02:53:03;6.77;;;1.10;;
81685;SDS011;71102;50.960;6.888;2023-11-19T02:55:29;6.00;;;1.10;;
81685;SDS011;71102;50.960;6.888;2023-11-19T02:57:54;9.17;;;1.30;;
81685;SDS011;71102;50.960;6.888;2023-11-19T03:00:20;6.97;;;1.23;;
81685;SDS011;71102;50.960;6.888;2023-11-19T03:02:45;6.47;;;1.15;;
81685;SDS011;71102;50.960;6.888;2023-11-19T03:05:11;10.17;;;1.90;;
81685;SDS011;71102;50.960;6.888;2023-11-19T03:07:37;5.55;;;1.85;;
81685;SDS011;71102;50.960;6.888;2023-11-19T03:10:02;7.97;;;1.23;;
81685;SDS011;71102;50.960;6.888;2023-11-19T03:12:27;5.63;;;1.10;;
81685;SDS011;71102;50.960;6.888;2023-11-19T03:14:53;11.60;;;1.40;;
81685;SDS011;71102;50.960;6.888;2023-11-19T03:17:19;7.38;;;1.23;;
81685;SDS011;71102;50.960;6.888;2023-11-19T03:19:44;9.50;;;1.50;;
81685;SDS011;71102;50.960;6.888;2023-11-19T03:22:09;11.17;;;1.60;;
81685;SDS011;71102;50.960;6.888;2023-11-19T03:24:35;8.20;;;1.20;;
81685;SDS011;71102;50.960;6.888;2023-11-19T03:27:00;7.53;;;1.40;;
81685;SDS011;71102;50.960;6.888;2023-11-19T03:29:25;8.03;;;1.30;;
81685;SDS011;71102;50.960;6.888;2023-11-19T03:31:50;8.90;;;1.30;;
81685;SDS011;71102;50.960;6.888;2023-11-19T03:34:15;7.83;;;1.83;;
81685;SDS011;71102;50.960;6.888;2023-11-19T03:36:41;7.37;;;1.80;;
81685;SDS011;71102;50.960;6.888;2023-11-19T03:39:06;9.97;;;2.40;;
81685;SDS011;71102;50.960;6.888;2023-11-19T03:41:31;11.93;;;2.63;;
81685;SDS011;71102;50.960;6.888;2023-11-19T03:43:56;7.37;;;1.33;;
81685;SDS011;71102;50.960;6.888;2023-11-19T03:46:22;13.68;;;3.33;;
81685;SDS011;71102;50.960;6.888;2023-11-19T03:48:48;9.15;;;1.77;;
81685;SDS011;71102;50.960;6.888;2023-11-19T03:51:13;12.10;;;1.60;;
81685;SDS011;71102;50.960;6.888;2023-11-19T03:53:39;11.87;;;1.60;;
81685;SDS011;71102;50.960;6.888;2023-11-19T03:56:04;8.53;;;1.37;;
81685;SDS011;71102;50.960;6.888;2023-11-19T03:58:29;10.45;;;2.13;;
81685;SDS011;71102;50.960;6.888;2023-11-19T04:00:55;7.80;;;1.50;;
81685;SDS011;71102;50.960;6.888;2023-11-19T04:03:20;10.73;;;1.67;;
81685;SDS011;71102;50.960;6.888;2023-11-19T04:05:45;7.27;;;1.33;;
81685;SDS011;71102;50.960;6.888;2023-11-19T04:08:10;12.27;;;2.03;;
81685;SDS011;71102;50.960;6.888;2023-11-19T04:10:36;7.60;;;1.63;;
81685;SDS011;71102;50.960;6.888;2023-11-19T04:13:01;9.02;;;2.33;;
81685;SDS011;71102;50.960;6.888;2023-11-19T04:15:26;11.13;;;2.30;;
81685;SDS011;71102;50.960;6.888;2023-11-19T04:17:51;9.43;;;2.00;;
81685;SDS011;71102;50.960;6.888;2023-11-19T04:20:17;12.10;;;1.90;;
81685;SDS011;71102;50.960;6.888;2023-11-19T04:22:42;8.33;;;1.53;;
81685;SDS011;71102;50.960;6.888;2023-11-19T04:25:07;7.50;;;1.50;;
81685;SDS011;71102;50.960;6.888;2023-11-19T04:27:32;9.23;;;1.65;;
81685;SDS011;71102;50.960;6.888;2023-11-19T04:29:59;10.70;;;1.50;;
81685;SDS011;71102;50.960;6.888;2023-11-19T04:32:24;10.83;;;1.40;;
81685;SDS011;71102;50.960;6.888;2023-11-19T04:34:50;8.93;;;1.53;;
81685;SDS011;71102;50.960;6.888;2023-11-19T04:37:15;10.93;;;1.63;;
81685;SDS011;71102;50.960;6.888;2023-11-19T04:39:40;8.87;;;1.60;;
81685;SDS011;71102;50.960;6.888;2023-11-19T04:42:05;11.60;;;1.43;;
81685;SDS011;71102;50.960;6.888;2023-11-19T04:44:31;9.88;;;1.50;;
81685;SDS011;71102;50.960;6.888;2023-11-19T04:46:56;10.20;;;1.43;;
81685;SDS011;71102;50.960;6.888;2023-11-19T04:49:21;12.20;;;2.50;;
81685;SDS011;71102;50.960;6.888;2023-11-19T04:51:46;12.90;;;1.60;;
81685;SDS011;71102;50.960;6.888;2023-11-19T04:54:11;12.63;;;1.93;;
81685;SDS011;71102;50.960;6.888;2023-11-19T04:56:37;10.33;;;2.00;;
81685;SDS011;71102;50.960;6.888;2023-11-19T04:59:02;12.93;;;1.90;;
81685;SDS011;71102;50.960;6.888;2023-11-19T05:01:27;12.10;;;1.60;;
81685;SDS011;71102;50.960;6.888;2023-11-19T05:03:52;11.23;;;1.83;;
81685;SDS011;71102;50.960;6.888;2023-11-19T05:06:18;14.15;;;3.25;;
81685;SDS011;71102;50.960;6.888;2023-11-19T05:08:43;12.90;;;1.80;;
81685;SDS011;71102;50.960;6.888;2023-11-19T05:11:09;9.95;;;1.80;;
81685;SDS011;71102;50.960;6.888;2023-11-19T05:13:34;10.03;;;1.67;;
81685;SDS011;71102;50.960;6.888;2023-11-19T05:15:59;10.83;;;1.53;;
81685;SDS011;71102;50.960;6.888;2023-11-19T05:18:24;12.83;;;1.67;;
81685;SDS011;71102;50.960;6.888;2023-11-19T05:20:49;17.73;;;2.40;;
81685;SDS011;71102;50.960;6.888;2023-11-19T05:23:15;9.03;;;1.47;;
81685;SDS011;71102;50.960;6.888;2023-11-19T05:25:40;10.80;;;1.70;;
81685;SDS011;71102;50.960;6.888;2023-11-19T05:28:05;13.13;;;2.17;;
81685;SDS011;71102;50.960;6.888;2023-11-19T05:30:30;12.97;;;2.13;;
81685;SDS011;71102;50.960;6.888;2023-11-19T05:32:57;12.73;;;1.92;;
81685;SDS011;71102;50.960;6.888;2023-11-19T05:35:22;11.93;;;2.17;;
81685;SDS011;71102;50.960;6.888;2023-11-19T05:37:47;12.27;;;1.90;;
81685;SDS011;71102;50.960;6.888;2023-11-19T05:40:12;12.80;;;1.87;;
81685;SDS011;71102;50.960;6.888;2023-11-19T05:42:37;11.90;;;1.67;;
81685;SDS011;71102;50.960;6.888;2023-11-19T05:45:03;13.27;;;1.83;;
81685;SDS011;71102;50.960;6.888;2023-11-19T05:47:28;10.63;;;2.30;;
81685;SDS011;71102;50.960;6.888;2023-11-19T05:49:53;14.23;;;2.00;;
81685;SDS011;71102;50.960;6.888;2023-11-19T05:52:18;10.53;;;1.67;;
81685;SDS011;71102;50.960;6.888;2023-11-19T05:54:43;12.57;;;2.20;;
81685;SDS011;71102;50.960;6.888;2023-11-19T05:57:09;13.27;;;2.07;;
81685;SDS011;71102;50.960;6.888;2023-11-19T05:59:34;9.60;;;1.50;;
81685;SDS011;71102;50.960;6.888;2023-11-19T06:01:59;13.45;;;1.80;;
81685;SDS011;71102;50.960;6.888;2023-11-19T06:04:25;12.88;;;2.15;;
81685;SDS011;71102;50.960;6.888;2023-11-19T06:06:50;10.52;;;1.73;;
81685;SDS011;71102;50.960;6.888;2023-11-19T06:09:15;16.13;;;2.30;;
81685;SDS011;71102;50.960;6.888;2023-11-19T06:11:40;11.40;;;1.77;;
81685;SDS011;71102;50.960;6.888;2023-11-19T06:14:06;12.23;;;1.70;;
81685;SDS011;71102;50.960;6.888;2023-11-19T06:16:31;18.27;;;3.23;;
81685;SDS011;71102;50.960;6.888;2023-11-19T06:18:56;16.73;;;2.90;;
81685;SDS011;71102;50.960;6.888;2023-11-19T06:21:21;13.70;;;1.63;;
81685;SDS011;71102;50.960;6.888;2023-11-19T06:23:47;13.77;;;2.20;;
81685;SDS011;71102;50.960;6.888;2023-11-19T06:26:12;10.97;;;2.00;;
81685;SDS011;71102;50.960;6.888;2023-11-19T06:28:37;14.17;;;2.30;;
81685;SDS011;71102;50.960;6.888;2023-11-19T06:31:03;11.03;;;1.73;;
81685;SDS011;71102;50.960;6.888;2023-11-19T06:33:28;18.48;;;2.55;;
81685;SDS011;71102;50.960;6.888;2023-11-19T06:35:53;13.93;;;3.17;;
81685;SDS011;71102;50.960;6.888;2023-11-19T06:38:18;13.40;;;1.87;;
81685;SDS011;71102;50.960;6.888;2023-11-19T06:40:44;14.03;;;2.53;;
81685;SDS011;71102;50.960;6.888;2023-11-19T06:43:09;11.53;;;2.00;;
81685;SDS011;71102;50.960;6.888;2023-11-19T06:45:34;13.63;;;1.57;;
81685;SDS011;71102;50.960;6.888;2023-11-19T06:48:05;15.00;;;2.40;;
81685;SDS011;71102;50.960;6.888;2023-11-19T06:50:31;13.10;;;2.70;;
81685;SDS011;71102;50.960;6.888;2023-11-19T06:52:56;14.88;;;2.00;;
81685;SDS011;71102;50.960;6.888;2023-11-19T06:55:21;13.77;;;2.20;;
81685;SDS011;71102;50.960;6.888;2023-11-19T06:57:47;17.33;;;2.90;;
81685;SDS011;71102;50.960;6.888;2023-11-19T07:00:12;15.50;;;2.50;;
81685;SDS011;71102;50.960;6.888;2023-11-19T07:02:37;12.00;;;2.43;;
81685;SDS011;71102;50.960;6.888;2023-11-19T07:05:02;16.50;;;2.40;;
81685;SDS011;71102;50.960;6.888;2023-11-19T07:07:28;16.48;;;2.90;;
81685;SDS011;71102;50.960;6.888;2023-11-19T07:09:53;11.40;;;1.77;;
81685;SDS011;71102;50.960;6.888;2023-11-19T07:12:18;13.73;;;2.37;;
81685;SDS011;71102;50.960;6.888;2023-11-19T07:14:43;10.20;;;2.20;;
81685;SDS011;71102;50.960;6.888;2023-11-19T07:17:08;16.77;;;2.83;;
81685;SDS011;71102;50.960;6.888;2023-11-19T07:19:34;15.50;;;2.10;;
81685;SDS011;71102;50.960;6.888;2023-11-19T07:21:59;12.93;;;2.20;;
81685;SDS011;71102;50.960;6.888;2023-11-19T07:24:24;12.83;;;1.90;;
81685;SDS011;71102;50.960;6.888;2023-11-19T07:26:49;10.93;;;2.10;;
81685;SDS011;71102;50.960;6.888;2023-11-19T07:29:15;18.97;;;1.90;;
81685;SDS011;71102;50.960;6.888;2023-11-19T07:31:40;12.17;;;2.00;;
81685;SDS011;71102;50.960;6.888;2023-11-19T07:34:05;12.77;;;1.90;;
81685;SDS011;71102;50.960;6.888;2023-11-19T07:36:30;11.20;;;2.13;;
81685;SDS011;71102;50.960;6.888;2023-11-19T07:38:55;21.57;;;2.87;;
81685;SDS011;71102;50.960;6.888;2023-11-19T07:41:21;9.10;;;1.87;;
81685;SDS011;71102;50.960;6.888;2023-11-19T07:43:46;16.07;;;2.40;;
81685;SDS011;71102;50.960;6.888;2023-11-19T07:46:11;15.00;;;3.00;;
81685;SDS011;71102;50.960;6.888;2023-11-19T07:48:36;17.90;;;2.17;;
81685;SDS011;71102;50.960;6.888;2023-11-19T07:51:02;12.07;;;2.40;;
81685;SDS011;71102;50.960;6.888;2023-11-19T07:53:27;15.03;;;2.80;;
81685;SDS011;71102;50.960;6.888;2023-11-19T07:55:52;14.47;;;2.77;;
81685;SDS011;71102;50.960;6.888;2023-11-19T07:58:17;12.43;;;2.50;;
81685;SDS011;71102;50.960;6.888;2023-11-19T08:00:42;12.23;;;1.93;;
81685;SDS011;71102;50.960;6.888;2023-11-19T08:03:08;16.77;;;2.60;;
81685;SDS011;71102;50.960;6.888;2023-11-19T08:05:33;14.40;;;3.63;;
81685;SDS011;71102;50.960;6.888;2023-11-19T08:07:58;13.43;;;2.50;;
81685;SDS011;71102;50.960;6.888;2023-11-19T08:10:23;13.83;;;2.60;;
81685;SDS011;71102;50.960;6.888;2023-11-19T08:12:48;16.33;;;2.60;;
81685;SDS011;71102;50.960;6.888;2023-11-19T08:15:14;17.07;;;2.70;;
81685;SDS011;71102;50.960;6.888;2023-11-19T08:17:39;13.95;;;2.60;;
81685;SDS011;71102;50.960;6.888;2023-11-19T08:20:04;14.83;;;2.50;;
81685;SDS011;71102;50.960;6.888;2023-11-19T08:22:30;13.13;;;2.30;;
81685;SDS011;71102;50.960;6.888;2023-11-19T08:24:55;16.02;;;2.60;;
81685;SDS011;71102;50.960;6.888;2023-11-19T08:27:21;14.37;;;2.20;;
81685;SDS011;71102;50.960;6.888;2023-11-19T08:29:46;13.00;;;2.30;;
81685;SDS011;71102;50.960;6.888;2023-11-19T08:32:11;15.17;;;2.23;;
81685;SDS011;71102;50.960;6.888;2023-11-19T08:34:36;14.57;;;2.97;;
81685;SDS011;71102;50.960;6.888;2023-11-19T08:37:01;15.97;;;2.33;;
81685;SDS011;71102;50.960;6.888;2023-11-19T08:39:27;11.73;;;2.67;;
81685;SDS011;71102;50.960;6.888;2023-11-19T08:41:52;13.27;;;2.10;;
81685;SDS011;71102;50.960;6.888;2023-11-19T08:44:17;14.77;;;1.87;;
81685;SDS011;71102;50.960;6.888;2023-11-19T08:46:49;20.73;;;2.93;;
81685;SDS011;71102;50.960;6.888;2023-11-19T08:49:14;13.07;;;1.77;;
81685;SDS011;71102;50.960;6.888;2023-11-19T08:51:39;19.90;;;2.83;;
81685;SDS011;71102;50.960;6.888;2023-11-19T08:54:05;14.90;;;2.63;;
81685;SDS011;71102;50.960;6.888;2023-11-19T08:56:30;17.83;;;4.17;;
81685;SDS011;71102;50.960;6.888;2023-11-19T08:58:55;18.70;;;2.37;;
81685;SDS011;71102;50.960;6.888;2023-11-19T09:01:20;16.67;;;2.20;;
81685;SDS011;71102;50.960;6.888;2023-11-19T09:03:45;14.03;;;2.27;;
81685;SDS011;71102;50.960;6.888;2023-11-19T09:06:11;15.93;;;2.30;;
81685;SDS011;71102;50.960;6.888;2023-11-19T09:08:36;17.47;;;3.73;;
81685;SDS011;71102;50.960;6.888;2023-11-19T09:11:01;12.73;;;1.93;;
81685;SDS011;71102;50.960;6.888;2023-11-19T09:13:31;18.38;;;2.38;;
81685;SDS011;71102;50.960;6.888;2023-11-19T09:15:56;16.17;;;2.53;;
81685;SDS011;71102;50.960;6.888;2023-11-19T09:18:21;11.63;;;2.00;;
81685;SDS011;71102;50.960;6.888;2023-11-19T09:20:46;14.97;;;2.63;;
81685;SDS011;71102;50.960;6.888;2023-11-19T09:23:12;13.80;;;2.43;;
81685;SDS011;71102;50.960;6.888;2023-11-19T09:25:37;16.80;;;1.97;;
81685;SDS011;71102;50.960;6.888;2023-11-19T09:28:02;15.43;;;2.33;;
81685;SDS011;71102;50.960;6.888;2023-11-19T09:30:27;21.37;;;2.93;;
81685;SDS011;71102;50.960;6.888;2023-11-19T09:32:53;19.23;;;2.30;;
81685;SDS011;71102;50.960;6.888;2023-11-19T09:35:18;19.33;;;2.40;;
81685;SDS011;71102;50.960;6.888;2023-11-19T09:37:43;14.97;;;2.13;;
81685;SDS011;71102;50.960;6.888;2023-11-19T09:40:08;13.73;;;2.33;;
81685;SDS011;71102;50.960;6.888;2023-11-19T09:42:34;18.17;;;2.40;;
81685;SDS011;71102;50.960;6.888;2023-11-19T09:45:06;14.13;;;2.28;;
81685;SDS011;71102;50.960;6.888;2023-11-19T09:47:37;22.80;;;3.25;;
81685;SDS011;71102;50.960;6.888;2023-11-19T09:50:02;17.73;;;2.17;;
81685;SDS011;71102;50.960;6.888;2023-11-19T09:52:28;17.17;;;3.45;;
81685;SDS011;71102;50.960;6.888;2023-11-19T09:54:53;21.10;;;2.77;;
81685;SDS011;71102;50.960;6.888;2023-11-19T09:57:18;16.40;;;2.70;;
81685;SDS011;71102;50.960;6.888;2023-11-19T09:59:44;14.55;;;2.20;;
81685;SDS011;71102;50.960;6.888;2023-11-19T10:02:10;15.48;;;2.08;;
81685;SDS011;71102;50.960;6.888;2023-11-19T10:04:35;15.77;;;2.42;;
81685;SDS011;71102;50.960;6.888;2023-11-19T10:07:01;18.92;;;2.28;;
81685;SDS011;71102;50.960;6.888;2023-11-19T10:09:26;18.03;;;2.53;;
81685;SDS011;71102;50.960;6.888;2023-11-19T10:11:51;14.07;;;1.80;;
81685;SDS011;71102;50.960;6.888;2023-11-19T10:14:18;21.30;;;2.77;;
81685;SDS011;71102;50.960;6.888;2023-11-19T10:16:44;15.27;;;2.42;;
81685;SDS011;71102;50.960;6.888;2023-11-19T10:19:11;17.83;;;2.90;;
81685;SDS011;71102;50.960;6.888;2023-11-19T10:21:37;23.23;;;2.70;;
81685;SDS011;71102;50.960;6.888;2023-11-19T10:24:02;15.87;;;2.00;;
81685;SDS011;71102;50.960;6.888;2023-11-19T10:26:28;14.85;;;2.72;;
81685;SDS011;71102;50.960;6.888;2023-11-19T10:28:53;13.17;;;2.07;;
81685;SDS011;71102;50.960;6.888;2023-11-19T10:31:20;18.70;;;2.92;;
81685;SDS011;71102;50.960;6.888;2023-11-19T10:33:45;15.52;;;2.97;;
81685;SDS011;71102;50.960;6.888;2023-11-19T10:36:11;12.07;;;2.28;;
81685;SDS011;71102;50.960;6.888;2023-11-19T10:38:36;17.35;;;2.35;;
81685;SDS011;71102;50.960;6.888;2023-11-19T10:41:02;14.30;;;2.20;;
81685;SDS011;71102;50.960;6.888;2023-11-19T10:43:27;15.83;;;2.10;;
81685;SDS011;71102;50.960;6.888;2023-11-19T10:45:52;17.30;;;3.50;;
81685;SDS011;71102;50.960;6.888;2023-11-19T10:48:17;15.57;;;2.30;;
81685;SDS011;71102;50.960;6.888;2023-11-19T10:50:43;14.90;;;2.57;;
81685;SDS011;71102;50.960;6.888;2023-11-19T10:53:10;20.02;;;3.63;;
81685;SDS011;71102;50.960;6.888;2023-11-19T10:55:37;16.25;;;2.22;;
81685;SDS011;71102;50.960;6.888;2023-11-19T10:58:03;15.95;;;2.53;;
81685;SDS011;71102;50.960;6.888;2023-11-19T11:00:38;14.38;;;2.35;;
81685;SDS011;71102;50.960;6.888;2023-11-19T11:03:05;14.52;;;2.97;;
81685;SDS011;71102;50.960;6.888;2023-11-19T11:05:33;19.05;;;2.25;;
81685;SDS011;71102;50.960;6.888;2023-11-19T11:07:59;12.63;;;2.00;;
81685;SDS011;71102;50.960;6.888;2023-11-19T11:10:25;13.68;;;2.25;;
81685;SDS011;71102;50.960;6.888;2023-11-19T11:12:50;10.35;;;2.05;;
81685;SDS011;71102;50.960;6.888;2023-11-19T11:15:16;13.43;;;2.20;;
81685;SDS011;71102;50.960;6.888;2023-11-19T11:17:42;16.88;;;2.88;;
81685;SDS011;71102;50.960;6.888;2023-11-19T11:20:08;12.35;;;2.13;;
81685;SDS011;71102;50.960;6.888;2023-11-19T11:22:37;13.40;;;2.45;;
81685;SDS011;71102;50.960;6.888;2023-11-19T11:25:16;21.88;;;2.50;;
81685;SDS011;71102;50.960;6.888;2023-11-19T11:38:10;15.30;;;2.43;;
81685;SDS011;71102;50.960;6.888;2023-11-19T11:40:36;11.35;;;2.13;;
81685;SDS011;71102;50.960;6.888;2023-11-19T11:43:01;12.77;;;2.77;;
81685;SDS011;71102;50.960;6.888;2023-11-19T11:45:36;13.45;;;2.30;;
81685;SDS011;71102;50.960;6.888;2023-11-19T11:50:27;13.88;;;1.88;;
81685;SDS011;71102;50.960;6.888;2023-11-19T11:55:26;11.93;;;1.77;;
81685;SDS011;71102;50.960;6.888;2023-11-19T11:57:51;15.55;;;2.45;;
81685;SDS011;71102;50.960;6.888;2023-11-19T12:00:27;11.90;;;3.38;;
81685;SDS011;71102;50.960;6.888;2023-11-19T12:02:56;14.93;;;2.65;;
81685;SDS011;71102;50.960;6.888;2023-11-19T12:05:21;11.18;;;1.95;;
81685;SDS011;71102;50.960;6.888;2023-11-19T12:08:03;13.38;;;2.20;;
81685;SDS011;71102;50.960;6.888;2023-11-19T12:10:29;10.45;;;1.92;;
81685;SDS011;71102;50.960;6.888;2023-11-19T12:12:58;12.23;;;2.00;;
81685;SDS011;71102;50.960;6.888;2023-11-19T12:15:23;15.10;;;1.65;;
81685;SDS011;71102;50.960;6.888;2023-11-19T12:17:49;15.67;;;3.60;;
81685;SDS011;71102;50.960;6.888;2023-11-19T12:20:15;10.80;;;2.28;;
81685;SDS011;71102;50.960;6.888;2023-11-19T12:22:41;12.55;;;1.77;;
81685;SDS011;71102;50.960;6.888;2023-11-19T12:25:07;14.52;;;1.92;;
81685;SDS011;71102;50.960;6.888;2023-11-19T12:27:33;10.85;;;2.30;;
81685;SDS011;71102;50.960;6.888;2023-11-19T12:29:58;13.40;;;2.00;;
81685;SDS011;71102;50.960;6.888;2023-11-19T12:32:23;14.10;;;2.73;;
81685;SDS011;71102;50.960;6.888;2023-11-19T12:34:48;12.63;;;1.77;;
81685;SDS011;71102;50.960;6.888;2023-11-19T12:37:13;15.10;;;2.40;;
81685;SDS011;71102;50.960;6.888;2023-11-19T12:39:39;13.50;;;1.80;;
81685;SDS011;71102;50.960;6.888;2023-11-19T12:42:04;16.27;;;2.10;;
81685;SDS011;71102;50.960;6.888;2023-11-19T12:44:29;9.35;;;1.73;;
81685;SDS011;71102;50.960;6.888;2023-11-19T12:47:01;9.30;;;1.30;;
81685;SDS011;71102;50.960;6.888;2023-11-19T12:49:27;9.07;;;1.65;;
81685;SDS011;71102;50.960;6.888;2023-11-19T12:51:52;13.43;;;1.73;;
81685;SDS011;71102;50.960;6.888;2023-11-19T12:54:17;9.47;;;1.37;;
81685;SDS011;71102;50.960;6.888;2023-11-19T12:56:51;16.87;;;2.67;;
81685;SDS011;71102;50.960;6.888;2023-11-19T12:59:16;12.20;;;2.03;;
81685;SDS011;71102;50.960;6.888;2023-11-19T13:01:42;7.03;;;1.30;;
81685;SDS011;71102;50.960;6.888;2023-11-19T13:04:18;13.35;;;1.98;;
81685;SDS011;71102;50.960;6.888;2023-11-19T13:06:46;9.73;;;1.98;;
81685;SDS011;71102;50.960;6.888;2023-11-19T13:09:21;10.80;;;1.90;;
81685;SDS011;71102;50.960;6.888;2023-11-19T13:11:46;15.70;;;2.00;;
81685;SDS011;71102;50.960;6.888;2023-11-19T13:14:11;9.70;;;2.37;;
81685;SDS011;71102;50.960;6.888;2023-11-19T13:16:37;11.30;;;1.43;;
81685;SDS011;71102;50.960;6.888;2023-11-19T13:19:02;8.23;;;1.42;;
81685;SDS011;71102;50.960;6.888;2023-11-19T13:21:28;13.70;;;2.20;;
81685;SDS011;71102;50.960;6.888;2023-11-19T13:23:53;14.10;;;1.95;;
81685;SDS011;71102;50.960;6.888;2023-11-19T13:26:18;9.87;;;2.00;;
81685;SDS011;71102;50.960;6.888;2023-11-19T13:28:43;10.97;;;1.93;;
81685;SDS011;71102;50.960;6.888;2023-11-19T13:31:09;11.53;;;2.13;;
81685;SDS011;71102;50.960;6.888;2023-11-19T13:33:34;15.87;;;2.43;;
81685;SDS011;71102;50.960;6.888;2023-11-19T13:35:59;15.97;;;3.43;;
81685;SDS011;71102;50.960;6.888;2023-11-19T13:38:24;15.00;;;2.30;;
81685;SDS011;71102;50.960;6.888;2023-11-19T13:40:50;15.07;;;2.73;;
81685;SDS011;71102;50.960;6.888;2023-11-19T13:43:15;16.87;;;3.27;;
81685;SDS011;71102;50.960;6.888;2023-11-19T13:45:40;12.50;;;2.30;;
81685;SDS011;71102;50.960;6.888;2023-11-19T13:48:05;15.27;;;2.63;;
81685;SDS011;71102;50.960;6.888;2023-11-19T13:50:31;14.63;;;2.70;;
81685;SDS011;71102;50.960;6.888;2023-11-19T13:52:56;12.83;;;2.23;;
81685;SDS011;71102;50.960;6.888;2023-11-19T13:55:21;14.20;;;1.97;;
81685;SDS011;71102;50.960;6.888;2023-11-19T13:57:46;12.93;;;2.63;;
81685;SDS011;71102;50.960;6.888;2023-11-19T14:00:11;16.17;;;2.70;;
81685;SDS011;71102;50.960;6.888;2023-11-19T14:02:37;16.90;;;4.28;;
81685;SDS011;71102;50.960;6.888;2023-11-19T14:05:02;16.50;;;2.03;;
81685;SDS011;71102;50.960;6.888;2023-11-19T14:07:27;12.93;;;2.20;;
81685;SDS011;71102;50.960;6.888;2023-11-19T14:09:53;16.47;;;2.13;;
81685;SDS011;71102;50.960;6.888;2023-11-19T14:12:18;13.23;;;2.07;;
81685;SDS011;71102;50.960;6.888;2023-11-19T14:14:43;11.63;;;2.47;;
81685;SDS011;71102;50.960;6.888;2023-11-19T14:17:08;11.53;;;2.03;;
81685;SDS011;71102;50.960;6.888;2023-11-19T14:19:34;10.80;;;1.83;;
81685;SDS011;71102;50.960;6.888;2023-11-19T14:21:59;16.73;;;3.00;;
81685;SDS011;71102;50.960;6.888;2023-11-19T14:24:24;12.53;;;1.40;;
81685;SDS011;71102;50.960;6.888;2023-11-19T14:26:49;18.23;;;3.27;;
81685;SDS011;71102;50.960;6.888;2023-11-19T14:29:15;13.27;;;1.90;;
81685;SDS011;71102;50.960;6.888;2023-11-19T14:31:40;10.03;;;1.87;;
81685;SDS011;71102;50.960;6.888;2023-11-19T14:34:05;10.43;;;2.27;;
81685;SDS011;71102;50.960;6.888;2023-11-19T14:36:30;14.27;;;2.43;;
81685;SDS011;71102;50.960;6.888;2023-11-19T14:38:56;10.03;;;1.53;;
81685;SDS011;71102;50.960;6.888;2023-11-19T14:41:21;13.07;;;2.00;;
81685;SDS011;71102;50.960;6.888;2023-11-19T14:43:46;12.00;;;1.73;;